FBR weather

Public forecast

Using degrees Fahrenheit for public forecast. Weather courtesy of forecast.io.

Current aviation weather report (METAR) for Fort Bridger Airport

Report is more than 6 hours old.

Retrieved 2019/05/20 13:40 UTC (1 year ago):

KFBR 201340Z AUTO 00000KT 10SM OVC008 02/02 A2974 RMK AO2

Closest aviation forecast (TAF) to Fort Bridger Airport

Closest forecast is Evanston-Uinta County Airport-Burns Field, 29.2 nm (54.0 km) WSW. Retrieved 2020/08/11 12:24 UTC (0 seconds ago):

TAF KEVW 111120Z 1112/1212 16006KT P6SM FEW200 FM111600 26006KT P6SM FEW150 FM111800 25013G21KT P6SM SCT150 FM120200 28010KT P6SM FEW150